Time;durP1;ratioP1;P1;durP2;ratioP2;P2;SDS_P1;SDS_P2;PMS_P1;PMS_P2;Temp;Humidity;BMP_temperature;BMP_pressure;BME280_temperature;BME280_humidity;BME280_pressure;Samples;Min_cycle;Max_cycle;Signal;HPM_P1;HPM_P2
2021/04/09 00:03:48;;;;;;;85.22;22.77;;;-1.00;99.90;;;;;;8294502;28;20025;-69
2021/04/09 00:07:49;;;;;;;85.20;22.77;;;-1.10;99.90;;;;;;8294259;28;20037;-69
2021/04/09 00:11:50;;;;;;;84.80;22.77;;;-1.00;99.90;;;;;;8294279;28;20030;-71
2021/04/09 00:15:50;;;;;;;87.20;22.83;;;-1.00;99.90;;;;;;8293860;28;20030;-70
2021/04/09 00:19:51;;;;;;;87.43;22.90;;;-1.30;99.90;;;;;;8301041;28;20022;-70
2021/04/09 00:23:51;;;;;;;87.68;23.35;;;-1.40;99.90;;;;;;8326369;28;20041;-70
2021/04/09 00:27:52;;;;;;;87.85;22.90;;;-1.20;99.90;;;;;;8324573;28;20033;-71
2021/04/09 00:31:52;;;;;;;85.03;22.73;;;-1.10;99.90;;;;;;8298715;28;20508;-70
2021/04/09 00:35:53;;;;;;;85.40;22.80;;;-1.10;99.90;;;;;;8293475;28;20034;-69
2021/04/09 00:39:54;;;;;;;84.78;22.48;;;-1.10;99.90;;;;;;8295639;28;20030;-69
2021/04/09 00:43:54;;;;;;;85.05;22.55;;;-1.00;99.90;;;;;;8298314;28;20026;-70
2021/04/09 00:47:55;;;;;;;85.95;22.95;;;-1.10;99.90;;;;;;8299388;28;20057;-70
2021/04/09 00:51:55;;;;;;;85.05;23.02;;;-1.30;99.90;;;;;;8324659;28;20041;-69
2021/04/09 00:55:56;;;;;;;85.43;23.02;;;-1.60;99.90;;;;;;8331623;28;20488;-70
2021/04/09 00:59:58;;;;;;;82.85;22.63;;;-1.30;99.90;;;;;;8332180;28;20056;-70
2021/04/09 01:04:00;;;;;;;84.05;22.73;;;-1.10;99.90;;;;;;8303908;28;20038;-69
2021/04/09 01:08:02;;;;;;;80.22;21.98;;;-1.20;99.90;;;;;;8298326;28;20023;-70
2021/04/09 01:12:04;;;;;;;82.45;22.08;;;-1.20;99.90;;;;;;8297228;28;20029;-70
2021/04/09 01:16:13;;;;;;;84.00;22.80;;;-1.30;99.90;;;;;;8296448;28;20480;-69
2021/04/09 01:20:29;;;;;;;84.57;22.75;;;-1.20;99.90;;;;;;8310141;28;20159;-69
2021/04/09 01:24:54;;;;;;;82.93;22.67;;;-1.20;99.90;;;;;;8329813;28;20033;-69
2021/04/09 01:29:41;;;;;;;80.03;22.25;;;-1.30;99.90;;;;;;8331170;28;20572;-71
2021/04/09 01:33:47;;;;;;;83.65;22.45;;;-1.50;99.90;;;;;;8322974;28;20592;-69
2021/04/09 01:37:57;;;;;;;79.10;22.02;;;-1.40;99.90;;;;;;8297801;28;20018;-70
2021/04/09 01:42:01;;;;;;;81.70;22.33;;;-1.70;99.90;;;;;;8301600;28;20097;-71
2021/04/09 01:46:03;;;;;;;82.72;22.55;;;-1.90;99.90;;;;;;8315045;28;20071;-70
2021/04/09 01:50:09;;;;;;;79.85;22.25;;;-2.10;99.90;;;;;;8330468;28;20042;-70
2021/04/09 01:54:10;;;;;;;81.03;22.35;;;-2.20;99.90;;;;;;8330519;28;20026;-70
2021/04/09 01:58:12;;;;;;;80.22;22.35;;;-2.00;99.90;;;;;;8330592;28;20065;-70
2021/04/09 02:02:16;;;;;;;78.22;21.65;;;-1.90;99.90;;;;;;8329198;28;20040;-70
2021/04/09 02:06:18;;;;;;;79.20;22.38;;;-1.90;99.90;;;;;;8327944;28;20033;-70
2021/04/09 02:10:20;;;;;;;77.95;21.88;;;-2.20;99.90;;;;;;8328998;28;20037;-71
2021/04/09 02:14:22;;;;;;;81.72;22.33;;;-2.30;99.90;;;;;;8330493;28;20065;-70
2021/04/09 02:18:27;;;;;;;83.75;22.98;;;-2.10;99.90;;;;;;8329938;28;20025;-70
2021/04/09 02:22:28;;;;;;;78.68;22.05;;;-2.00;99.90;;;;;;8329530;28;20061;-70
2021/04/09 02:26:28;;;;;;;81.20;22.58;;;-2.00;99.90;;;;;;8329388;28;20056;-71
2021/04/09 02:30:29;;;;;;;82.95;22.63;;;-2.30;99.90;;;;;;8327984;28;20042;-70
2021/04/09 02:34:29;;;;;;;81.95;22.25;;;-2.50;99.90;;;;;;8329078;28;20029;-70
2021/04/09 02:38:30;;;;;;;80.03;22.58;;;-2.30;99.90;;;;;;8327389;28;20036;-70
2021/04/09 02:42:31;;;;;;;82.82;23.02;;;-2.30;99.90;;;;;;8328828;28;20022;-70
2021/04/09 02:46:39;;;;;;;80.93;22.35;;;-2.30;99.90;;;;;;8328922;28;20029;-70
2021/04/09 02:50:45;;;;;;;81.30;22.63;;;-2.60;99.90;;;;;;8328613;28;20080;-70
2021/04/09 02:54:50;;;;;;;84.32;22.88;;;-2.60;99.90;;;;;;8328662;28;20542;-71
2021/04/09 02:58:51;;;;;;;80.38;22.23;;;-2.70;99.90;;;;;;8328479;28;20053;-70
2021/04/09 03:02:53;;;;;;;80.22;22.38;;;-2.40;99.90;;;;;;8326440;28;20033;-70
2021/04/09 03:06:55;;;;;;;83.60;23.10;;;-2.20;99.90;;;;;;8328344;28;20031;-70
2021/04/09 03:10:56;;;;;;;84.45;23.15;;;-2.10;99.90;;;;;;8325663;28;20060;-71
2021/04/09 03:14:57;;;;;;;82.70;22.65;;;-2.20;99.90;;;;;;8326245;28;20404;-70
2021/04/09 03:18:58;;;;;;;82.38;23.00;;;-2.40;99.90;;;;;;8327898;28;20396;-69
2021/04/09 03:22:58;;;;;;;82.35;22.85;;;-2.20;99.90;;;;;;8327678;28;20064;-70
2021/04/09 03:26:59;;;;;;;80.00;22.00;;;-2.40;99.90;;;;;;8310064;28;20034;-70
2021/04/09 03:31:00;;;;;;;82.30;22.98;;;-2.50;99.90;;;;;;8302071;28;20018;-70
2021/04/09 03:35:01;;;;;;;82.28;22.88;;;-2.50;99.90;;;;;;8308810;28;20038;-70
2021/04/09 03:39:02;;;;;;;84.00;23.45;;;-2.60;99.90;;;;;;8306318;28;20030;-71
2021/04/09 03:43:03;;;;;;;80.38;22.58;;;-2.50;99.90;;;;;;8309123;28;20057;-70
2021/04/09 03:47:03;;;;;;;82.95;23.17;;;-2.30;99.90;;;;;;8311952;28;20022;-70
2021/04/09 03:51:04;;;;;;;84.15;22.50;;;-2.20;99.90;;;;;;8323196;28;20116;-70
2021/04/09 03:55:09;;;;;;;82.40;22.70;;;-2.40;99.90;;;;;;8325781;28;20029;-71
2021/04/09 03:59:09;;;;;;;81.72;22.55;;;-2.40;99.90;;;;;;8325996;28;20129;-70
2021/04/09 04:03:10;;;;;;;85.20;23.20;;;-2.50;99.90;;;;;;8325995;28;20021;-70
2021/04/09 04:07:10;;;;;;;82.32;22.88;;;-2.50;99.90;;;;;;8325916;28;20114;-70
2021/04/09 04:11:11;;;;;;;85.07;23.25;;;-2.60;99.90;;;;;;8319594;28;20557;-71
2021/04/09 04:15:12;;;;;;;85.07;23.33;;;-2.60;99.90;;;;;;8313782;28;20044;-70
2021/04/09 04:19:17;;;;;;;84.20;22.88;;;-2.60;99.90;;;;;;8302564;28;20039;-69
2021/04/09 04:23:18;;;;;;;82.20;23.05;;;-2.40;99.90;;;;;;8332001;28;20156;-70
2021/04/09 04:27:19;;;;;;;82.93;22.98;;;-2.40;99.90;;;;;;8332313;28;20033;-70
2021/04/09 04:31:19;;;;;;;82.25;23.05;;;-2.50;99.90;;;;;;8332663;28;20083;-71
2021/04/09 04:35:20;;;;;;;82.13;22.73;;;-2.80;99.90;;;;;;8312251;28;20028;-71
2021/04/09 04:39:20;;;;;;;80.03;22.45;;;-2.80;99.90;;;;;;8328473;28;20029;-70
2021/04/09 04:43:21;;;;;;;81.45;22.83;;;-2.60;99.90;;;;;;8318206;28;20026;-70
2021/04/09 04:47:21;;;;;;;81.22;22.77;;;-2.60;99.90;;;;;;8306264;28;20120;-70
2021/04/09 04:51:22;;;;;;;81.43;22.65;;;-2.50;99.90;;;;;;8315973;28;20168;-66
2021/04/09 04:55:23;;;;;;;82.88;23.50;;;-2.80;99.90;;;;;;8317173;28;20033;-66
2021/04/09 04:59:23;;;;;;;85.50;23.90;;;-2.80;99.90;;;;;;8316577;28;20404;-66
2021/04/09 05:03:24;;;;;;;96.85;24.70;;;-2.70;99.90;;;;;;8314044;28;20030;-66
2021/04/09 05:07:25;;;;;;;87.20;23.98;;;-0.60;99.90;;;;;;8325702;28;20029;-66
2021/04/09 05:11:25;;;;;;;94.18;24.55;;;2.60;99.90;;;;;;8328211;28;20063;-68
2021/04/09 05:15:26;;;;;;;90.97;23.40;;;1.70;99.90;;;;;;8329232;28;20032;-67
2021/04/09 05:19:26;;;;;;;88.35;23.02;;;2.00;99.90;;;;;;8328751;28;20065;-66
2021/04/09 05:23:27;;;;;;;87.40;22.98;;;0.80;99.90;;;;;;8330796;28;20021;-67
2021/04/09 05:27:27;;;;;;;87.93;23.27;;;0.20;99.90;;;;;;8328601;28;20033;-67
2021/04/09 05:31:28;;;;;;;87.90;23.20;;;-0.30;99.90;;;;;;8306747;28;20427;-67
2021/04/09 05:35:29;;;;;;;88.68;23.38;;;-0.40;99.90;;;;;;8321075;28;20178;-66
2021/04/09 05:39:29;;;;;;;90.35;23.55;;;-0.10;99.90;;;;;;8325672;28;20117;-66
2021/04/09 05:43:30;;;;;;;79.22;22.42;;;2.00;99.90;;;;;;8299674;28;20062;-66
2021/04/09 05:47:31;;;;;;;76.60;22.55;;;3.20;99.90;;;;;;8297289;28;20053;-68
2021/04/09 05:51:35;;;;;;;78.20;22.67;;;3.20;99.90;;;;;;8301991;28;20112;-67
2021/04/09 05:55:35;;;;;;;78.10;22.65;;;3.10;99.90;;;;;;8311708;28;20033;-66
2021/04/09 05:59:36;;;;;;;74.10;22.80;;;3.00;99.90;;;;;;8315385;28;20432;-67
2021/04/09 06:03:37;;;;;;;72.75;22.65;;;3.90;99.90;;;;;;8313312;28;20060;-67
2021/04/09 06:07:38;;;;;;;71.45;22.40;;;4.70;99.90;;;;;;8312334;28;20026;-66
2021/04/09 06:11:38;;;;;;;73.72;22.75;;;4.50;99.90;;;;;;8311944;28;20072;-67
2021/04/09 06:15:39;;;;;;;73.88;23.05;;;4.00;99.90;;;;;;8305247;28;20034;-66
2021/04/09 06:19:40;;;;;;;72.30;23.05;;;4.10;99.90;;;;;;8311724;28;20609;-68
2021/04/09 06:23:40;;;;;;;73.32;22.73;;;5.10;99.90;;;;;;8296293;28;20094;-67
2021/04/09 06:27:41;;;;;;;75.00;23.05;;;4.60;99.90;;;;;;8308400;28;20483;-66
2021/04/09 06:31:42;;;;;;;75.80;23.20;;;4.20;99.90;;;;;;8305543;28;20087;-67
2021/04/09 06:35:42;;;;;;;77.22;23.48;;;3.70;99.90;;;;;;8309291;28;20566;-68
2021/04/09 06:39:43;;;;;;;77.88;23.50;;;3.50;99.90;;;;;;8311589;28;20455;-67
2021/04/09 06:43:44;;;;;;;79.68;23.77;;;3.60;99.90;;;;;;8312958;28;20103;-67
2021/04/09 06:47:45;;;;;;;79.78;24.00;;;3.90;99.90;;;;;;8308838;28;20057;-67
2021/04/09 06:51:46;;;;;;;80.68;24.55;;;4.20;99.90;;;;;;8309954;28;20052;-67
2021/04/09 06:55:47;;;;;;;79.97;23.90;;;4.30;99.90;;;;;;8308168;28;20037;-67
2021/04/09 06:59:48;;;;;;;78.70;23.55;;;4.70;99.90;;;;;;8326241;28;20025;-68
2021/04/09 07:03:49;;;;;;;77.53;23.65;;;5.10;99.90;;;;;;8326538;28;20084;-67
2021/04/09 07:07:50;;;;;;;77.65;23.45;;;5.40;99.90;;;;;;8316917;28;20053;-67
2021/04/09 07:11:52;;;;;;;72.97;23.13;;;5.80;99.90;;;;;;8308416;28;20123;-67
2021/04/09 07:15:54;;;;;;;70.55;22.42;;;5.80;99.90;;;;;;8312151;28;20029;-66
2021/04/09 07:20:24;;;;;;;69.95;21.98;;;5.70;99.90;;;;;;8306673;28;20053;-68
2021/04/09 07:24:25;;;;;;;70.60;22.27;;;5.70;99.90;;;;;;8303814;28;20051;-69
2021/04/09 07:28:25;;;;;;;70.93;22.50;;;5.80;99.90;;;;;;8306867;28;20094;-68
2021/04/09 07:32:27;;;;;;;66.03;20.95;;;5.90;99.90;;;;;;8308468;28;20099;-68
2021/04/09 07:36:28;;;;;;;72.38;22.50;;;6.50;99.90;;;;;;8304323;28;20412;-68
2021/04/09 07:40:33;;;;;;;76.25;23.63;;;7.00;99.90;;;;;;8320254;28;20033;-69
2021/04/09 07:44:34;;;;;;;73.45;22.98;;;7.60;99.90;;;;;;8315143;28;20034;-68
2021/04/09 07:48:37;;;;;;;75.43;23.70;;;8.00;99.90;;;;;;8305817;28;20037;-67
2021/04/09 07:52:55;;;;;;;76.00;23.88;;;8.30;99.90;;;;;;8293212;28;20124;-67
2021/04/09 07:56:56;;;;;;;76.22;23.45;;;8.40;99.90;;;;;;8292942;28;20041;-67
2021/04/09 08:00:57;;;;;;;78.05;24.33;;;8.40;99.90;;;;;;8298776;28;20707;-67
2021/04/09 08:04:58;;;;;;;78.47;24.27;;;8.60;99.90;;;;;;8308080;28;20041;-67
2021/04/09 08:08:59;;;;;;;79.40;23.95;;;8.90;99.90;;;;;;8308413;28;20084;-67
2021/04/09 08:13:01;;;;;;;81.30;24.60;;;9.30;99.90;;;;;;8307791;28;20058;-66
2021/04/09 08:17:11;;;;;;;84.15;26.17;;;9.80;99.90;;;;;;8305257;28;20030;-68
2021/04/09 08:21:11;;;;;;;84.72;25.08;;;10.30;99.90;;;;;;8303457;28;20065;-67
2021/04/09 08:25:13;;;;;;;86.25;25.60;;;10.60;91.40;;;;;;8304615;28;20062;-67
2021/04/09 08:29:15;;;;;;;85.93;25.20;;;10.40;69.40;;;;;;8300432;28;20100;-66
2021/04/09 08:33:15;;;;;;;86.43;25.15;;;10.50;70.40;;;;;;8310865;28;20163;-65
2021/04/09 08:37:16;;;;;;;87.43;25.10;;;10.60;66.00;;;;;;8308393;28;20056;-67
2021/04/09 08:41:18;;;;;;;88.22;25.65;;;10.70;65.70;;;;;;8308389;28;20029;-67
2021/04/09 08:45:19;;;;;;;91.60;26.55;;;11.10;64.90;;;;;;8318199;28;20021;-68
2021/04/09 08:49:21;;;;;;;94.30;28.33;;;11.40;64.00;;;;;;8317949;28;20037;-67
2021/04/09 08:53:26;;;;;;;93.53;28.05;;;11.60;60.40;;;;;;8296959;28;20033;-68
2021/04/09 08:57:39;;;;;;;92.43;26.25;;;11.50;61.40;;;;;;8294401;28;20029;-68
2021/04/09 09:01:40;;;;;;;92.95;26.00;;;11.70;61.30;;;;;;8301108;28;20038;-67
2021/04/09 09:05:57;;;;;;;92.82;25.90;;;12.00;58.80;;;;;;8314769;28;20082;-67
2021/04/09 09:09:58;;;;;;;92.88;26.23;;;12.20;57.20;;;;;;8320569;28;20120;-67
2021/04/09 09:13:58;;;;;;;92.03;26.10;;;12.30;54.50;;;;;;8331083;28;20033;-67
2021/04/09 09:17:59;;;;;;;93.80;26.30;;;12.20;54.90;;;;;;8318460;28;20493;-68
2021/04/09 09:22:14;;;;;;;94.35;26.10;;;12.50;56.20;;;;;;8321923;28;20033;-66
2021/04/09 09:26:33;;;;;;;98.82;27.65;;;12.80;54.40;;;;;;8316211;28;20017;-67
2021/04/09 09:30:36;;;;;;;100.82;27.65;;;13.00;51.70;;;;;;8296330;28;20034;-67
2021/04/09 09:34:41;;;;;;;99.68;27.38;;;13.30;51.70;;;;;;8313069;28;20728;-67
2021/04/09 09:38:50;;;;;;;99.97;27.80;;;13.50;50.20;;;;;;8309933;28;20392;-67
2021/04/09 09:42:50;;;;;;;102.30;28.20;;;13.70;52.00;;;;;;8311310;28;20017;-66
2021/04/09 09:46:56;;;;;;;101.18;27.83;;;13.70;52.50;;;;;;8311131;28;20488;-68
2021/04/09 09:50:57;;;;;;;99.65;27.30;;;14.10;50.60;;;;;;8309654;28;20665;-67
2021/04/09 09:55:16;;;;;;;100.03;27.30;;;14.30;47.70;;;;;;8298873;28;20030;-68
2021/04/09 09:59:19;;;;;;;101.78;27.92;;;13.90;47.70;;;;;;8321843;28;20041;-67
2021/04/09 10:03:25;;;;;;;99.68;27.40;;;13.70;48.40;;;;;;8307449;28;20033;-67
2021/04/09 10:07:26;;;;;;;103.15;27.98;;;13.90;49.90;;;;;;8310516;28;20044;-67
2021/04/09 10:11:26;;;;;;;41.90;14.25;;;14.20;50.60;;;;;;8319309;28;20108;-67
2021/04/09 10:15:27;;;;;;;98.05;26.63;;;15.00;50.10;;;;;;8310191;28;20025;-67
2021/04/09 10:19:28;;;;;;;92.55;25.95;;;15.50;45.30;;;;;;8312323;28;20038;-68
2021/04/09 10:23:29;;;;;;;90.90;25.40;;;14.90;45.90;;;;;;8316291;28;20080;-67
2021/04/09 10:27:29;;;;;;;93.65;25.88;;;14.90;45.20;;;;;;8324739;28;20139;-67
2021/04/09 10:31:33;;;;;;;96.72;26.65;;;15.00;46.50;;;;;;8314372;28;20022;-67
2021/04/09 10:35:35;;;;;;;97.45;26.42;;;15.10;46.10;;;;;;8314217;28;20152;-68
2021/04/09 10:39:39;;;;;;;97.63;26.25;;;15.20;47.00;;;;;;8323171;28;20025;-68
2021/04/09 10:43:39;;;;;;;98.43;26.63;;;15.80;46.00;;;;;;8310698;28;20121;-68
2021/04/09 10:47:40;;;;;;;97.63;26.88;;;16.10;44.60;;;;;;8310591;28;20024;-67
2021/04/09 10:51:43;;;;;;;97.15;26.60;;;15.80;44.80;;;;;;8309436;28;20064;-67
2021/04/09 10:55:44;;;;;;;98.00;27.02;;;15.70;45.50;;;;;;8309144;28;20582;-67
2021/04/09 10:59:50;;;;;;;97.88;26.15;;;16.20;45.90;;;;;;8304918;28;20030;-68
2021/04/09 11:03:52;;;;;;;94.90;26.10;;;16.80;44.30;;;;;;8321778;28;20503;-67
2021/04/09 11:07:53;;;;;;;97.45;26.17;;;17.40;42.20;;;;;;8303399;28;20539;-67
2021/04/09 11:11:54;;;;;;;7.22;5.65;;;18.50;35.80;;;;;;8294638;28;20112;-67
2021/04/09 11:15:56;;;;;;;76.63;21.08;;;19.80;35.50;;;;;;8293495;28;20515;-67
2021/04/09 11:19:58;;;;;;;69.15;19.20;;;19.30;35.60;;;;;;8313695;28;20068;-67
2021/04/09 11:23:59;;;;;;;42.72;13.65;;;20.40;34.30;;;;;;8326531;28;20056;-68
2021/04/09 11:27:59;;;;;;;63.17;17.83;;;21.50;31.10;;;;;;8327033;28;20155;-67
2021/04/09 11:32:20;;;;;;;90.38;25.42;;;23.00;31.10;;;;;;8298178;28;20088;-67
2021/04/09 11:36:23;;;;;;;80.00;24.00;;;21.20;29.90;;;;;;8309813;28;20021;-69
2021/04/09 11:40:37;;;;;;;81.18;24.20;;;20.10;30.50;;;;;;8315896;28;20025;-67
2021/04/09 11:44:40;;;;;;;79.20;23.70;;;19.50;29.60;;;;;;8315159;28;20056;-68
2021/04/09 11:48:42;;;;;;;79.03;23.42;;;18.50;30.60;;;;;;8301198;28;20515;-68
2021/04/09 11:52:54;;;;;;;73.63;22.80;;;19.20;32.20;;;;;;8315695;28;20055;-68
2021/04/09 11:56:55;;;;;;;70.93;22.55;;;18.70;30.40;;;;;;8315509;28;20030;-68
2021/04/09 12:01:00;;;;;;;69.90;22.75;;;18.50;30.30;;;;;;8312470;28;20048;-68
2021/04/09 12:05:01;;;;;;;66.85;22.48;;;18.00;30.50;;;;;;8309042;28;20021;-68
2021/04/09 12:09:05;;;;;;;65.20;22.25;;;17.30;31.40;;;;;;8307348;28;20123;-67
2021/04/09 12:13:06;;;;;;;67.53;22.52;;;17.10;33.30;;;;;;8304365;28;20133;-68
2021/04/09 12:17:08;;;;;;;77.97;24.08;;;19.00;32.80;;;;;;8308851;28;20033;-68
2021/04/09 12:21:08;;;;;;;67.88;22.80;;;19.20;30.20;;;;;;8306308;28;20025;-66
2021/04/09 12:25:10;;;;;;;67.82;22.40;;;18.50;31.60;;;;;;8305115;28;20029;-68
2021/04/09 12:29:11;;;;;;;63.90;21.63;;;18.00;31.70;;;;;;8308275;28;20018;-68
2021/04/09 12:33:11;;;;;;;61.67;21.48;;;17.80;31.40;;;;;;8304903;28;20411;-67
2021/04/09 12:37:12;;;;;;;69.82;22.40;;;18.30;30.50;;;;;;8314838;28;20069;-68
2021/04/09 12:41:13;;;;;;;63.78;21.83;;;17.90;31.80;;;;;;8324019;28;20032;-66
2021/04/09 12:45:14;;;;;;;68.28;22.27;;;17.60;33.00;;;;;;8310005;28;20030;-67
2021/04/09 12:49:17;;;;;;;62.58;21.52;;;17.00;33.10;;;;;;8316769;28;20029;-66
2021/04/09 12:53:17;;;;;;;62.05;22.02;;;16.60;35.10;;;;;;8300527;28;20033;-66
2021/04/09 12:57:18;;;;;;;62.85;21.88;;;16.60;35.40;;;;;;8305521;28;20050;-66
2021/04/09 13:01:18;;;;;;;61.28;21.60;;;16.60;35.40;;;;;;8323231;28;20357;-68
2021/04/09 13:05:19;;;;;;;61.65;21.70;;;16.40;35.50;;;;;;8327300;28;20025;-67
2021/04/09 13:09:20;;;;;;;61.88;21.85;;;16.60;34.90;;;;;;8303940;28;20753;-67
2021/04/09 13:13:21;;;;;;;60.65;21.45;;;16.80;36.00;;;;;;8315366;28;20026;-66
2021/04/09 13:17:22;;;;;;;64.07;21.70;;;16.60;34.40;;;;;;8323473;28;20491;-68
2021/04/09 13:21:22;;;;;;;60.55;21.38;;;16.90;37.70;;;;;;8312856;28;20443;-67
2021/04/09 13:25:23;;;;;;;61.70;21.17;;;16.60;35.00;;;;;;8314335;28;20428;-67
2021/04/09 13:29:24;;;;;;;60.17;21.40;;;16.90;34.50;;;;;;8317844;28;20064;-67
2021/04/09 13:33:37;;;;;;;60.20;21.25;;;16.70;35.80;;;;;;8324317;28;20023;-67
2021/04/09 13:37:38;;;;;;;61.60;21.60;;;16.40;36.40;;;;;;8324717;28;20033;-67
2021/04/09 13:41:39;;;;;;;61.92;21.33;;;16.70;35.40;;;;;;8324210;28;20597;-67
2021/04/09 13:45:40;;;;;;;65.43;21.73;;;16.70;35.00;;;;;;8320092;28;20087;-67
2021/04/09 13:49:41;;;;;;;73.20;22.73;;;16.90;35.60;;;;;;8316320;28;20040;-67
2021/04/09 13:53:41;;;;;;;74.40;22.95;;;18.10;33.70;;;;;;8315879;28;20123;-67
2021/04/09 13:57:42;;;;;;;73.57;23.17;;;18.80;32.90;;;;;;8312854;28;20387;-67
2021/04/09 14:01:43;;;;;;;72.55;23.05;;;19.40;32.20;;;;;;8315760;28;20034;-67
2021/04/09 14:05:43;;;;;;;70.05;22.80;;;18.50;33.80;;;;;;8313379;28;20027;-67
2021/04/09 14:09:44;;;;;;;66.40;22.75;;;17.40;34.80;;;;;;8332497;28;20040;-67
2021/04/09 14:13:44;;;;;;;65.43;22.00;;;16.60;35.60;;;;;;8351671;28;20044;-67
2021/04/09 14:17:45;;;;;;;64.22;22.20;;;16.40;38.00;;;;;;8350296;28;20035;-66
2021/04/09 14:21:46;;;;;;;65.63;22.30;;;16.30;37.00;;;;;;8320376;28;20026;-66
2021/04/09 14:25:47;;;;;;;66.72;21.70;;;16.40;35.70;;;;;;8318680;28;20037;-70
2021/04/09 14:29:47;;;;;;;71.85;22.88;;;17.10;35.10;;;;;;8322949;28;20033;-69
2021/04/09 14:33:48;;;;;;;78.43;23.33;;;19.30;33.10;;;;;;8302986;28;20408;-69
2021/04/09 14:37:49;;;;;;;79.57;23.67;;;21.10;29.70;;;;;;8308528;28;20063;-70
2021/04/09 14:41:49;;;;;;;79.43;23.70;;;20.40;30.20;;;;;;8289634;28;20387;-69
2021/04/09 14:45:50;;;;;;;78.30;23.67;;;19.70;31.50;;;;;;8324402;28;20028;-69
2021/04/09 14:49:51;;;;;;;83.72;24.58;;;20.10;31.50;;;;;;8328512;28;20053;-69
2021/04/09 14:53:52;;;;;;;89.10;24.95;;;21.70;31.80;;;;;;8315780;28;20029;-68
2021/04/09 14:57:52;;;;;;;86.13;24.30;;;23.30;28.00;;;;;;8312860;28;20068;-69
2021/04/09 15:01:53;;;;;;;87.40;24.75;;;21.30;29.60;;;;;;8311208;28;20488;-69
2021/04/09 15:05:54;;;;;;;94.78;25.23;;;21.10;29.70;;;;;;8303592;28;20034;-69
2021/04/09 15:09:54;;;;;;;52.67;14.90;;;23.10;28.50;;;;;;8314565;28;20057;-70
2021/04/09 15:13:55;;;;;;;97.75;26.20;;;24.50;27.40;;;;;;8321829;28;20030;-69
2021/04/09 15:17:56;;;;;;;96.43;25.92;;;21.60;28.30;;;;;;8321858;28;20026;-69
2021/04/09 15:21:56;;;;;;;91.13;25.42;;;19.40;30.20;;;;;;8317154;28;20037;-70
2021/04/09 15:25:57;;;;;;;86.20;24.60;;;18.00;32.00;;;;;;8304980;28;20395;-69
2021/04/09 15:29:58;;;;;;;87.57;24.92;;;17.90;33.30;;;;;;8316759;28;20122;-69
2021/04/09 15:33:59;;;;;;;84.45;24.23;;;18.80;32.70;;;;;;8311594;28;20397;-68
2021/04/09 15:37:59;;;;;;;89.43;24.83;;;18.90;33.80;;;;;;8314752;28;20045;-69
2021/04/09 15:42:00;;;;;;;57.80;16.50;;;20.00;32.50;;;;;;8308232;28;20030;-70
2021/04/09 15:46:01;;;;;;;35.10;10.27;;;22.10;30.40;;;;;;8308163;28;20822;-70
2021/04/09 15:50:02;;;;;;;12.10;5.88;;;23.10;29.80;;;;;;8306876;28;20033;-70
2021/04/09 15:54:03;;;;;;;42.53;12.82;;;23.80;30.00;;;;;;8306664;28;20021;-70
2021/04/09 15:58:04;;;;;;;92.65;25.48;;;24.40;28.40;;;;;;8310090;28;20080;-69
2021/04/09 16:02:05;;;;;;;92.05;26.13;;;24.00;28.20;;;;;;8309259;28;20018;-69
2021/04/09 16:06:05;;;;;;;80.18;24.02;;;23.10;29.20;;;;;;8295017;28;20053;-69
2021/04/09 16:10:07;;;;;;;76.35;23.52;;;22.10;30.20;;;;;;8308408;28;20108;-68
2021/04/09 16:14:09;;;;;;;73.28;23.40;;;;;;;;;;8318015;28;20029;-69
2021/04/09 16:18:10;;;;;;;71.47;23.20;;;;;;;;;;8321777;28;20445;-69
2021/04/09 16:22:11;;;;;;;70.38;23.40;;;17.60;37.40;;;;;;8325124;28;20022;-69
2021/04/09 16:26:12;;;;;;;67.72;22.10;;;17.50;38.90;;;;;;8337598;28;20030;-69
2021/04/09 16:30:17;;;;;;;66.25;22.42;;;18.10;37.30;;;;;;8331458;28;20075;-69
2021/04/09 16:34:17;;;;;;;67.78;23.25;;;17.80;39.00;;;;;;8332269;28;20030;-69
2021/04/09 16:38:18;;;;;;;65.68;22.27;;;18.60;37.30;;;;;;8310059;28;20116;-69
2021/04/09 16:42:18;;;;;;;79.05;24.67;;;19.30;35.70;;;;;;8325709;28;20043;-69
2021/04/09 16:46:19;;;;;;;65.45;22.40;;;20.50;33.90;;;;;;8326142;28;20021;-68
2021/04/09 16:50:20;;;;;;;62.78;21.90;;;19.50;34.90;;;;;;8324892;28;20762;-68
2021/04/09 16:54:23;;;;;;;60.60;21.48;;;17.30;37.60;;;;;;8327017;28;20053;-69
2021/04/09 16:58:24;;;;;;;55.38;20.95;;;16.20;40.30;;;;;;8336152;28;20030;-68
2021/04/09 17:02:25;;;;;;;55.08;21.10;;;15.60;41.60;;;;;;8336265;28;20045;-69
2021/04/09 17:06:27;;;;;;;53.20;20.40;;;15.30;42.80;;;;;;8335962;28;20036;-68
2021/04/09 17:10:29;;;;;;;56.67;20.80;;;15.50;42.80;;;;;;8334309;28;20026;-69
2021/04/09 17:14:30;;;;;;;56.78;20.80;;;15.90;41.70;;;;;;8310507;28;20412;-69
2021/04/09 17:18:30;;;;;;;55.95;20.80;;;15.80;42.00;;;;;;8313373;28;20040;-69
2021/04/09 17:22:31;;;;;;;57.25;21.20;;;15.70;42.70;;;;;;8312334;28;20069;-69
2021/04/09 17:26:32;;;;;;;55.88;21.17;;;15.50;43.00;;;;;;8315101;28;20037;-69
2021/04/09 17:30:32;;;;;;;53.85;20.45;;;15.50;43.20;;;;;;8338378;28;20037;-68
2021/04/09 17:34:33;;;;;;;51.92;20.25;;;15.20;43.90;;;;;;8351790;28;20033;-69
2021/04/09 17:38:34;;;;;;;53.17;20.35;;;14.70;45.40;;;;;;8341955;28;20037;-68
2021/04/09 17:42:35;;;;;;;56.85;21.70;;;14.40;47.10;;;;;;8331164;28;20036;-69
2021/04/09 17:46:37;;;;;;;53.80;21.08;;;13.90;48.80;;;;;;8355640;28;20047;-69
2021/04/09 17:50:38;;;;;;;51.67;20.45;;;13.70;49.30;;;;;;8352384;28;20051;-69
2021/04/09 17:54:40;;;;;;;51.50;20.10;;;13.40;50.10;;;;;;8354281;28;20025;-69
2021/04/09 17:58:41;;;;;;;50.88;20.25;;;12.80;52.20;;;;;;8356368;28;20087;-68
2021/04/09 18:02:41;;;;;;;51.22;20.05;;;12.70;52.90;;;;;;8353686;28;20499;-68
2021/04/09 18:06:42;;;;;;;55.03;21.85;;;12.40;54.20;;;;;;8348705;28;20048;-68
2021/04/09 18:10:43;;;;;;;49.75;20.55;;;12.30;55.30;;;;;;8326963;28;20086;-68
2021/04/09 18:14:44;;;;;;;49.55;20.30;;;12.00;55.90;;;;;;8347570;28;20515;-69
2021/04/09 18:18:45;;;;;;;48.00;20.02;;;11.60;58.30;;;;;;8351794;28;20053;-69
2021/04/09 18:22:45;;;;;;;48.33;20.05;;;11.20;57.60;;;;;;8355867;28;20032;-69
2021/04/09 18:26:49;;;;;;;47.40;19.55;;;11.00;59.60;;;;;;8347413;28;20032;-69
2021/04/09 18:30:53;;;;;;;49.45;20.25;;;10.80;61.60;;;;;;8354449;28;20021;-69
2021/04/09 18:34:53;;;;;;;47.75;19.83;;;10.70;62.10;;;;;;8350890;28;20025;-69
2021/04/09 18:38:54;;;;;;;48.33;19.15;;;10.50;60.70;;;;;;8357453;28;20557;-69
2021/04/09 18:42:55;;;;;;;50.45;20.27;;;10.30;62.90;;;;;;8344388;28;20458;-69
2021/04/09 18:46:56;;;;;;;48.50;19.83;;;10.10;65.70;;;;;;8343242;28;20021;-69
2021/04/09 18:50:56;;;;;;;48.25;19.63;;;9.90;67.70;;;;;;8348900;28;20033;-69
2021/04/09 18:54:57;;;;;;;48.33;19.40;;;9.60;68.20;;;;;;8352294;28;20060;-69
2021/04/09 18:58:58;;;;;;;47.78;19.42;;;9.20;68.60;;;;;;8361621;28;20056;-69
2021/04/09 19:02:59;;;;;;;47.03;19.42;;;9.00;70.40;;;;;;8351247;28;20411;-69
2021/04/09 19:06:59;;;;;;;47.28;19.55;;;8.80;71.10;;;;;;8339459;28;20099;-71
2021/04/09 19:11:00;;;;;;;47.63;19.40;;;8.80;70.60;;;;;;8303950;28;20036;-70
2021/04/09 19:15:01;;;;;;;49.63;19.90;;;8.90;71.20;;;;;;8306798;28;20084;-70
2021/04/09 19:19:02;;;;;;;47.63;19.38;;;8.70;73.00;;;;;;8300806;28;20021;-70
2021/04/09 19:23:04;;;;;;;48.97;19.75;;;8.50;74.20;;;;;;8307202;28;20113;-70
2021/04/09 19:27:04;;;;;;;48.60;19.05;;;8.40;75.50;;;;;;8316675;28;20022;-70
2021/04/09 19:31:05;;;;;;;48.95;19.45;;;8.30;76.50;;;;;;8296624;28;20409;-70
2021/04/09 19:35:06;;;;;;;49.33;19.75;;;8.40;78.20;;;;;;8307246;28;20038;-70
2021/04/09 19:39:07;;;;;;;47.97;19.05;;;8.30;78.50;;;;;;8298812;28;20037;-70
2021/04/09 19:43:07;;;;;;;49.00;19.58;;;8.60;79.40;;;;;;8312900;28;20024;-69
2021/04/09 19:47:08;;;;;;;48.75;19.45;;;8.60;80.00;;;;;;8315485;28;20801;-67
2021/04/09 19:51:09;;;;;;;48.33;19.15;;;8.80;82.10;;;;;;8303334;28;20570;-67
2021/04/09 19:55:10;;;;;;;49.30;19.65;;;8.60;83.30;;;;;;8296550;28;20092;-70
2021/04/09 19:59:11;;;;;;;48.60;19.17;;;8.60;85.70;;;;;;8311805;28;20120;-70
2021/04/09 20:03:11;;;;;;;48.65;19.42;;;8.70;83.50;;;;;;8313078;28;20406;-70
2021/04/09 20:07:12;;;;;;;48.00;19.38;;;8.50;85.00;;;;;;8302467;28;20104;-69
2021/04/09 20:11:14;;;;;;;48.15;19.33;;;8.40;89.00;;;;;;8297024;28;20033;-70
2021/04/09 20:15:15;;;;;;;48.03;20.00;;;8.40;90.10;;;;;;8308614;28;20025;-70
2021/04/09 20:19:16;;;;;;;48.35;19.48;;;8.30;90.70;;;;;;8311621;28;20041;-71
2021/04/09 20:23:16;;;;;;;47.90;19.20;;;8.30;91.80;;;;;;8302956;28;20133;-71
2021/04/09 20:27:17;;;;;;;49.60;19.35;;;8.10;93.30;;;;;;8302140;28;20034;-70
2021/04/09 20:31:18;;;;;;;48.95;18.98;;;8.20;93.10;;;;;;8305997;28;20061;-70
2021/04/09 20:35:18;;;;;;;49.20;19.52;;;8.30;92.80;;;;;;8308068;28;20041;-70